Time;durP1;ratioP1;P1;durP2;ratioP2;P2;SDS_P1;SDS_P2;PMS_P1;PMS_P2;Temp;Humidity;BMP_temperature;BMP_pressure;BME280_temperature;BME280_humidity;BME280_pressure;Samples;Min_cycle;Max_cycle;Signal;HPM_P1;HPM_P2
2022/12/21 00:02:04;;;;;;;20.83;11.43;;;11.10;99.90;;;;;;5092552;28;20204;-63
2022/12/21 00:04:30;;;;;;;22.83;12.20;;;11.10;99.90;;;;;;5095709;28;20189;-62
2022/12/21 00:06:56;;;;;;;24.27;12.57;;;11.10;99.90;;;;;;5093865;28;20711;-62
2022/12/21 00:09:22;;;;;;;23.15;12.95;;;11.20;99.90;;;;;;5093950;28;20635;-62
2022/12/21 00:11:48;;;;;;;22.13;11.45;;;11.20;99.90;;;;;;5082122;28;20188;-62
2022/12/21 00:14:14;;;;;;;22.98;11.40;;;11.30;99.90;;;;;;5094880;28;20185;-62
2022/12/21 00:16:41;;;;;;;22.10;10.90;;;11.40;99.90;;;;;;5093275;28;20181;-62
2022/12/21 00:19:07;;;;;;;17.35;10.50;;;11.30;99.90;;;;;;5094784;28;20237;-62
2022/12/21 00:21:35;;;;;;;22.20;11.00;;;11.20;99.90;;;;;;5095143;28;20188;-62
2022/12/21 00:24:01;;;;;;;22.67;12.43;;;11.40;99.90;;;;;;5095051;28;20654;-62
2022/12/21 00:26:30;;;;;;;35.38;14.13;;;11.30;99.90;;;;;;5093829;28;20200;-62
2022/12/21 00:28:57;;;;;;;24.13;13.13;;;11.40;99.90;;;;;;5095458;28;20181;-62
2022/12/21 00:31:29;;;;;;;21.20;11.63;;;11.70;99.90;;;;;;5091266;28;20196;-62
2022/12/21 00:33:55;;;;;;;25.25;11.77;;;11.80;99.90;;;;;;5094766;28;20531;-62
2022/12/21 00:36:23;;;;;;;23.52;12.43;;;11.70;99.90;;;;;;5088867;28;20212;-62
2022/12/21 00:38:49;;;;;;;24.48;13.13;;;11.70;99.90;;;;;;5093848;28;20670;-62
2022/12/21 00:41:19;;;;;;;20.45;11.57;;;11.80;99.90;;;;;;5085831;28;20177;-62
2022/12/21 00:43:45;;;;;;;24.50;12.80;;;11.70;99.90;;;;;;5084050;28;20196;-62
2022/12/21 00:46:17;;;;;;;26.83;13.63;;;11.60;99.90;;;;;;5078703;28;20193;-62
2022/12/21 00:48:43;;;;;;;29.08;13.20;;;11.50;99.90;;;;;;5091943;28;20173;-63
2022/12/21 00:51:11;;;;;;;25.15;11.95;;;11.50;99.90;;;;;;5094559;28;20199;-63
2022/12/21 00:53:37;;;;;;;25.02;12.20;;;11.40;99.90;;;;;;5092836;28;20238;-62
2022/12/21 00:56:05;;;;;;;24.05;11.63;;;11.40;99.90;;;;;;5094988;28;20639;-63
2022/12/21 00:58:32;;;;;;;21.52;11.77;;;11.30;99.90;;;;;;5094590;28;20189;-63
2022/12/21 01:01:04;;;;;;;25.80;12.85;;;11.30;99.90;;;;;;5092883;28;20573;-63
2022/12/21 01:03:29;;;;;;;23.00;12.90;;;11.20;99.90;;;;;;5088436;28;20590;-62
2022/12/21 01:05:55;;;;;;;19.63;11.48;;;11.20;99.90;;;;;;5094500;28;20184;-63
2022/12/21 01:08:23;;;;;;;25.20;14.07;;;11.20;99.90;;;;;;5093039;28;20189;-63
2022/12/21 01:10:49;;;;;;;30.33;13.95;;;11.20;99.90;;;;;;5094307;28;20188;-63
2022/12/21 01:13:15;;;;;;;26.65;13.30;;;11.20;99.90;;;;;;5081434;28;20246;-63
2022/12/21 01:15:46;;;;;;;19.08;11.82;;;11.20;99.90;;;;;;5089722;28;20212;-63
2022/12/21 01:18:14;;;;;;;20.52;11.55;;;11.10;99.90;;;;;;5082072;28;20240;-63
2022/12/21 01:20:52;;;;;;;22.17;13.02;;;11.10;99.90;;;;;;5092926;28;20764;-63
2022/12/21 01:23:18;;;;;;;20.23;10.73;;;11.10;99.90;;;;;;5094409;28;20270;-63
2022/12/21 01:25:45;;;;;;;18.33;11.73;;;11.10;99.90;;;;;;5093787;28;20234;-63
2022/12/21 01:28:12;;;;;;;20.83;10.93;;;11.10;99.90;;;;;;5093577;28;20187;-63
2022/12/21 01:30:38;;;;;;;23.48;12.10;;;11.10;99.90;;;;;;5094830;28;20219;-62
2022/12/21 01:33:05;;;;;;;21.13;10.77;;;11.00;99.90;;;;;;5092414;28;20196;-63
2022/12/21 01:35:31;;;;;;;27.42;12.05;;;11.00;99.90;;;;;;5087899;28;20185;-63
2022/12/21 01:37:56;;;;;;;20.48;12.82;;;11.00;99.90;;;;;;5083807;28;20189;-63
2022/12/21 01:40:22;;;;;;;20.55;12.10;;;11.00;99.90;;;;;;5074458;28;20226;-63
2022/12/21 01:42:49;;;;;;;19.10;11.40;;;10.90;99.90;;;;;;5084464;28;20205;-64
2022/12/21 01:45:32;;;;;;;17.92;10.57;;;11.00;99.90;;;;;;5090484;28;20217;-63
2022/12/21 01:48:03;;;;;;;18.77;9.57;;;10.90;99.90;;;;;;5082535;28;20603;-63
2022/12/21 01:50:52;;;;;;;18.17;10.30;;;10.80;99.90;;;;;;5090928;28;20181;-63
2022/12/21 01:53:28;;;;;;;17.38;8.68;;;10.90;99.90;;;;;;5094178;28;20185;-63
2022/12/21 01:55:57;;;;;;;14.48;8.98;;;10.90;99.90;;;;;;5093553;28;20177;-63
2022/12/21 01:58:25;;;;;;;13.80;7.90;;;10.80;99.90;;;;;;5081170;28;20185;-63
2022/12/21 02:00:52;;;;;;;16.85;9.77;;;10.80;99.90;;;;;;5077975;28;20746;-63
2022/12/21 02:03:21;;;;;;;19.42;9.60;;;10.70;99.90;;;;;;5094076;28;20208;-63
2022/12/21 02:06:09;;;;;;;16.63;8.95;;;10.50;99.90;;;;;;5093026;28;20192;-63
2022/12/21 02:08:35;;;;;;;12.55;7.65;;;10.50;99.90;;;;;;5090178;28;20180;-63
2022/12/21 02:11:03;;;;;;;18.05;8.18;;;10.50;99.90;;;;;;5092500;28;20180;-63
2022/12/21 02:13:29;;;;;;;13.05;7.53;;;10.60;99.90;;;;;;5092739;28;20193;-63
2022/12/21 02:16:17;;;;;;;10.20;6.88;;;10.60;99.90;;;;;;5081535;28;20585;-63
2022/12/21 02:19:07;;;;;;;11.27;6.75;;;10.60;99.90;;;;;;5080360;28;20172;-63
2022/12/21 02:21:53;;;;;;;11.25;6.88;;;10.50;99.90;;;;;;5090836;28;20707;-62
2022/12/21 02:24:22;;;;;;;8.48;6.03;;;10.50;99.90;;;;;;5092183;28;20220;-62
2022/12/21 02:26:56;;;;;;;8.63;4.88;;;10.50;99.90;;;;;;5084784;28;20188;-62
2022/12/21 02:29:39;;;;;;;8.40;5.85;;;10.50;99.90;;;;;;5077961;28;20272;-63
2022/12/21 02:32:07;;;;;;;11.45;5.32;;;10.50;99.90;;;;;;5092998;28;20270;-62
2022/12/21 02:34:48;;;;;;;12.05;6.60;;;10.50;99.90;;;;;;5092208;28;20199;-62
2022/12/21 02:37:20;;;;;;;8.80;5.43;;;10.60;99.90;;;;;;5091322;28;20187;-63
2022/12/21 02:39:54;;;;;;;13.68;6.50;;;10.60;99.90;;;;;;5094161;28;20273;-62
2022/12/21 02:45:43;;;;;;;13.57;7.20;;;10.70;99.90;;;;;;5081751;28;20233;-62
2022/12/21 02:48:24;;;;;;;14.85;7.45;;;10.60;99.90;;;;;;5090637;28;20227;-62
2022/12/21 02:50:55;;;;;;;18.85;9.55;;;10.70;99.90;;;;;;5091676;28;20181;-62
2022/12/21 02:53:30;;;;;;;14.50;7.70;;;10.90;99.90;;;;;;5082592;28;20662;-62
2022/12/21 02:55:56;;;;;;;14.48;6.82;;;10.90;99.90;;;;;;5088514;28;20330;-62
2022/12/21 02:58:23;;;;;;;16.55;7.25;;;10.80;99.90;;;;;;5092051;28;20698;-63
2022/12/21 03:00:52;;;;;;;15.97;7.53;;;10.60;99.90;;;;;;5090525;28;20186;-63
2022/12/21 03:03:47;;;;;;;13.38;7.13;;;10.70;99.90;;;;;;5085012;28;20213;-64
2022/12/21 03:06:39;;;;;;;11.60;6.35;;;10.60;99.90;;;;;;5091490;28;20188;-63
2022/12/21 03:09:38;;;;;;;15.80;7.00;;;10.60;99.90;;;;;;5084992;28;20184;-62
2022/12/21 03:12:19;;;;;;;10.90;6.95;;;10.70;99.90;;;;;;5079023;28;20267;-63
2022/12/21 03:15:23;;;;;;;17.23;7.55;;;10.80;99.90;;;;;;5086602;28;20181;-63
2022/12/21 03:18:00;;;;;;;12.43;6.90;;;10.60;99.90;;;;;;5083157;28;20192;-63
2022/12/21 03:20:51;;;;;;;16.10;7.57;;;10.60;99.90;;;;;;5087670;28;20176;-63
2022/12/21 03:23:26;;;;;;;19.30;8.65;;;10.80;99.90;;;;;;5079312;28;20568;-63
2022/12/21 03:25:58;;;;;;;13.43;7.05;;;10.80;99.90;;;;;;5091969;28;20184;-63
2022/12/21 03:28:31;;;;;;;13.48;6.60;;;10.80;99.90;;;;;;5083825;28;20174;-63
2022/12/21 03:31:02;;;;;;;10.50;6.85;;;10.60;99.90;;;;;;5079056;28;20177;-64
2022/12/21 03:33:33;;;;;;;15.93;7.70;;;10.50;99.90;;;;;;5091055;28;20627;-62
2022/12/21 03:36:04;;;;;;;14.45;6.95;;;10.60;99.90;;;;;;5091614;28;20317;-62
2022/12/21 03:38:34;;;;;;;16.48;8.70;;;10.50;99.90;;;;;;5088335;28;20510;-62
2022/12/21 03:41:03;;;;;;;14.40;8.13;;;10.50;99.90;;;;;;5092065;28;20680;-62
2022/12/21 03:43:35;;;;;;;19.98;8.18;;;10.40;99.90;;;;;;5095383;28;20686;-62
2022/12/21 03:46:35;;;;;;;14.02;8.48;;;10.60;99.90;;;;;;5096678;28;20230;-62
2022/12/21 03:49:10;;;;;;;14.25;7.65;;;10.80;99.90;;;;;;5069938;28;20196;-62
2022/12/21 03:51:48;;;;;;;12.73;8.45;;;10.60;99.90;;;;;;5092270;28;20188;-62
2022/12/21 03:54:39;;;;;;;17.88;9.27;;;10.70;99.90;;;;;;5094469;28;20507;-62
2022/12/21 03:57:07;;;;;;;15.93;9.10;;;10.80;99.90;;;;;;5088619;28;20177;-62
2022/12/21 03:59:34;;;;;;;16.08;9.38;;;10.60;99.90;;;;;;5086207;28;20189;-62
2022/12/21 04:02:18;;;;;;;18.95;9.15;;;10.60;99.90;;;;;;5092316;28;20267;-63
2022/12/21 04:05:06;;;;;;;18.65;8.93;;;10.60;99.90;;;;;;5096075;28;20184;-63
2022/12/21 04:07:34;;;;;;;11.45;8.20;;;10.50;99.90;;;;;;5088883;28;20184;-62
2022/12/21 04:10:05;;;;;;;17.65;8.75;;;10.50;99.90;;;;;;5095131;28;20189;-62
2022/12/21 04:12:36;;;;;;;20.90;11.82;;;10.40;99.90;;;;;;5077427;28;20669;-62
2022/12/21 04:15:03;;;;;;;22.80;9.45;;;10.50;99.90;;;;;;5090815;28;20262;-63
2022/12/21 04:17:29;;;;;;;17.42;9.05;;;10.50;99.90;;;;;;5093989;28;20656;-63
2022/12/21 04:19:57;;;;;;;17.50;8.60;;;10.50;99.90;;;;;;5095360;28;20267;-63
2022/12/21 04:28:08;;;;;;;19.77;8.73;;;10.50;99.90;;;;;;5080368;28;20262;-63
2022/12/21 04:30:45;;;;;;;16.80;9.73;;;10.60;99.90;;;;;;5090996;28;20627;-63
2022/12/21 04:33:13;;;;;;;17.70;9.52;;;10.60;99.90;;;;;;5083583;28;20180;-63
2022/12/21 04:37:30;;;;;;;13.25;7.43;;;10.50;99.90;;;;;;5083817;28;20188;-63
2022/12/21 04:38:29;;;;;;;14.55;7.20;;;10.40;99.90;;;;;;5094973;28;20196;-63
2022/12/21 04:40:56;;;;;;;17.13;7.53;;;10.40;99.90;;;;;;5090303;28;20272;-62
2022/12/21 04:43:22;;;;;;;13.20;7.63;;;10.40;99.90;;;;;;5094574;28;20663;-63
2022/12/21 04:45:48;;;;;;;12.35;7.30;;;10.50;99.90;;;;;;5086726;28;20200;-63
2022/12/21 04:48:15;;;;;;;14.05;7.10;;;10.40;99.90;;;;;;5094174;28;20185;-62
2022/12/21 04:50:41;;;;;;;11.18;6.85;;;10.40;99.90;;;;;;5088771;28;20184;-63
2022/12/21 04:53:07;;;;;;;11.70;7.25;;;10.50;99.90;;;;;;5093184;28;20193;-63
2022/12/21 04:55:33;;;;;;;12.55;7.10;;;10.40;99.90;;;;;;5082398;28;20532;-63
2022/12/21 04:57:59;;;;;;;11.32;6.22;;;10.40;99.90;;;;;;5079675;28;20189;-63
2022/12/21 05:00:24;;;;;;;12.02;7.57;;;10.40;99.90;;;;;;5092889;28;20269;-63
2022/12/21 05:02:50;;;;;;;9.38;5.65;;;10.40;99.90;;;;;;5093625;28;20298;-62
2022/12/21 05:05:16;;;;;;;11.75;6.32;;;10.40;99.90;;;;;;5093708;28;20189;-63
2022/12/21 05:07:42;;;;;;;9.88;6.13;;;10.50;99.90;;;;;;5089445;28;20186;-64
2022/12/21 05:10:08;;;;;;;9.23;5.03;;;10.50;99.90;;;;;;5089299;28;20192;-64
2022/12/21 05:12:34;;;;;;;9.70;5.10;;;10.50;99.90;;;;;;5094400;28;20669;-64
2022/12/21 05:15:00;;;;;;;8.13;5.38;;;10.40;99.90;;;;;;5095328;28;20255;-63
2022/12/21 05:17:26;;;;;;;8.52;5.28;;;10.50;99.90;;;;;;5092464;28;20215;-63
2022/12/21 05:19:51;;;;;;;9.00;4.97;;;10.60;99.90;;;;;;5089277;28;20207;-63
2022/12/21 05:22:20;;;;;;;9.68;5.45;;;10.60;99.90;;;;;;5082381;28;20239;-63
2022/12/21 05:24:45;;;;;;;11.30;4.85;;;10.40;99.90;;;;;;5086553;28;20203;-63
2022/12/21 05:27:12;;;;;;;9.75;5.07;;;10.30;99.90;;;;;;5084887;28;20188;-63
2022/12/21 05:29:38;;;;;;;10.63;5.78;;;10.10;99.90;;;;;;5093679;28;20211;-64
2022/12/21 05:32:04;;;;;;;10.02;4.38;;;10.20;99.90;;;;;;5087050;28;20220;-64
2022/12/21 05:34:30;;;;;;;9.15;4.55;;;10.20;99.90;;;;;;5093822;28;20197;-64
2022/12/21 05:36:56;;;;;;;9.80;5.55;;;10.20;99.90;;;;;;5093696;28;20180;-64
2022/12/21 05:39:21;;;;;;;9.55;4.97;;;10.20;99.90;;;;;;5089819;28;20196;-64
2022/12/21 05:41:47;;;;;;;10.40;5.38;;;10.30;99.90;;;;;;5071814;28;20281;-64
2022/12/21 05:44:12;;;;;;;10.10;5.95;;;10.30;99.90;;;;;;5078371;28;20268;-63
2022/12/21 05:46:38;;;;;;;8.15;4.53;;;10.30;99.90;;;;;;5098135;28;20212;-63
2022/12/21 05:49:04;;;;;;;7.72;3.90;;;10.30;99.90;;;;;;5087558;28;20227;-64
2022/12/21 05:51:30;;;;;;;9.32;4.57;;;10.30;99.90;;;;;;5093120;28;20185;-64
2022/12/21 05:53:56;;;;;;;10.30;5.20;;;10.40;99.90;;;;;;5092663;28;20221;-63
2022/12/21 05:56:22;;;;;;;11.70;4.78;;;10.40;99.90;;;;;;5093551;28;20188;-63
2022/12/21 05:58:49;;;;;;;6.93;4.40;;;10.30;99.90;;;;;;5087186;28;20181;-64
2022/12/21 06:01:15;;;;;;;8.60;4.70;;;10.30;99.90;;;;;;5092457;28;20188;-62
2022/12/21 06:03:41;;;;;;;12.07;4.40;;;10.20;99.90;;;;;;5091310;28;20200;-64
2022/12/21 06:06:13;;;;;;;10.25;4.75;;;10.30;99.90;;;;;;5092135;28;20192;-63
2022/12/21 06:08:39;;;;;;;13.07;6.72;;;10.30;99.90;;;;;;5089287;28;20176;-62
2022/12/21 06:11:07;;;;;;;11.18;4.97;;;10.30;99.90;;;;;;5093021;28;20559;-63
2022/12/21 06:13:33;;;;;;;10.75;5.40;;;10.20;99.90;;;;;;5087294;28;20185;-64
2022/12/21 06:16:07;;;;;;;10.52;5.80;;;10.20;99.90;;;;;;5072912;28;20946;-64
2022/12/21 06:18:34;;;;;;;7.40;4.55;;;10.10;99.90;;;;;;5096612;28;20198;-63
2022/12/21 06:21:00;;;;;;;13.40;5.53;;;10.00;99.90;;;;;;5082805;28;20223;-61
2022/12/21 06:23:25;;;;;;;15.10;6.50;;;10.00;99.90;;;;;;5091842;28;20251;-62
2022/12/21 06:25:56;;;;;;;13.43;6.05;;;10.10;99.90;;;;;;5092565;28;20188;-63
2022/12/21 06:28:22;;;;;;;14.73;7.13;;;10.20;99.90;;;;;;5089667;28;20183;-63
2022/12/21 06:30:50;;;;;;;13.20;6.83;;;10.20;99.90;;;;;;5092083;28;20635;-62
2022/12/21 06:33:17;;;;;;;14.40;6.33;;;10.10;99.90;;;;;;5090466;28;20545;-62
2022/12/21 06:35:42;;;;;;;14.70;5.70;;;10.10;99.90;;;;;;5057584;28;20249;-63
2022/12/21 06:38:08;;;;;;;16.00;5.63;;;9.90;99.90;;;;;;5092940;28;20522;-61
2022/12/21 06:40:34;;;;;;;13.87;6.77;;;9.70;99.90;;;;;;5078593;28;20609;-62
2022/12/21 06:42:59;;;;;;;16.17;6.53;;;9.70;99.90;;;;;;5088531;28;20565;-62
2022/12/21 06:45:25;;;;;;;7.07;5.30;;;9.80;99.90;;;;;;5087485;28;20196;-61
2022/12/21 06:47:54;;;;;;;15.63;7.07;;;9.70;99.90;;;;;;5071198;28;20636;-62
2022/12/21 06:50:23;;;;;;;15.50;6.77;;;9.70;99.90;;;;;;5082180;28;20216;-62
2022/12/21 06:52:49;;;;;;;10.87;7.53;;;9.80;99.90;;;;;;5092491;28;20196;-63
2022/12/21 06:55:15;;;;;;;12.07;6.03;;;9.80;99.90;;;;;;5087968;28;20192;-62
2022/12/21 06:57:42;;;;;;;11.80;6.87;;;9.70;99.90;;;;;;5092793;28;20185;-63
2022/12/21 07:00:09;;;;;;;11.80;6.37;;;9.50;99.90;;;;;;5083243;28;20186;-63
2022/12/21 07:02:36;;;;;;;12.87;6.50;;;9.40;99.90;;;;;;5091768;28;20561;-63
2022/12/21 07:05:02;;;;;;;16.00;7.70;;;9.50;99.90;;;;;;5090664;28;20189;-63
2022/12/21 07:07:28;;;;;;;11.30;6.10;;;9.60;99.90;;;;;;5092038;28;20181;-62
2022/12/21 07:09:53;;;;;;;18.33;6.93;;;9.70;99.90;;;;;;5092293;28;20188;-63
2022/12/21 07:12:19;;;;;;;15.13;8.00;;;9.80;99.90;;;;;;5090426;28;20692;-64
2022/12/21 07:14:45;;;;;;;15.77;6.80;;;9.80;99.90;;;;;;5091877;28;20596;-64
2022/12/21 07:17:10;;;;;;;13.50;7.60;;;9.90;99.90;;;;;;5092282;28;20549;-65
2022/12/21 07:19:36;;;;;;;17.53;8.83;;;9.90;99.90;;;;;;5089424;28;20189;-63
2022/12/21 07:22:02;;;;;;;16.23;9.40;;;9.90;99.90;;;;;;5087520;28;20188;-67
2022/12/21 07:24:27;;;;;;;16.73;8.73;;;9.90;99.90;;;;;;5090737;28;20242;-64
2022/12/21 07:26:54;;;;;;;17.10;9.17;;;9.90;99.90;;;;;;5090596;28;20188;-63
2022/12/21 07:29:20;;;;;;;20.17;9.27;;;9.80;99.90;;;;;;5069689;28;20189;-64
2022/12/21 07:31:45;;;;;;;16.43;9.93;;;9.90;99.90;;;;;;5070435;28;20184;-63
2022/12/21 07:34:11;;;;;;;22.40;10.60;;;9.80;99.90;;;;;;5090150;28;20185;-64
2022/12/21 07:36:37;;;;;;;19.80;9.67;;;9.80;99.90;;;;;;5089636;28;20631;-62
2022/12/21 07:39:03;;;;;;;16.47;8.90;;;9.70;99.90;;;;;;5092072;28;20661;-63
2022/12/21 07:41:28;;;;;;;16.63;9.40;;;9.50;99.90;;;;;;5091437;28;20521;-62
2022/12/21 07:43:54;;;;;;;21.73;10.90;;;9.60;99.90;;;;;;5090658;28;20204;-63
2022/12/21 07:46:20;;;;;;;21.33;10.83;;;9.60;99.90;;;;;;5090869;28;20196;-63
2022/12/21 07:48:46;;;;;;;17.57;9.43;;;9.70;99.90;;;;;;5084137;28;20185;-62
2022/12/21 07:51:12;;;;;;;25.63;9.93;;;9.90;99.90;;;;;;5087574;28;20228;-63
2022/12/21 07:53:37;;;;;;;18.97;10.33;;;9.90;99.90;;;;;;5078478;28;20192;-63
2022/12/21 07:56:15;;;;;;;15.23;8.93;;;9.80;99.90;;;;;;5074003;28;20204;-63
2022/12/21 07:58:41;;;;;;;16.33;7.80;;;9.70;99.90;;;;;;5091294;28;20188;-63
2022/12/21 08:01:12;;;;;;;18.00;9.40;;;9.70;99.90;;;;;;5085773;28;20198;-62
2022/12/21 08:03:39;;;;;;;17.90;9.13;;;9.60;99.90;;;;;;5090818;28;20760;-62
2022/12/21 08:06:06;;;;;;;17.70;8.67;;;9.60;99.90;;;;;;5092368;28;20276;-62
2022/12/21 08:08:33;;;;;;;13.53;7.87;;;9.70;99.90;;;;;;5087991;28;20193;-62
2022/12/21 08:10:59;;;;;;;14.27;8.53;;;9.90;99.90;;;;;;5091313;28;20212;-62
2022/12/21 08:13:24;;;;;;;18.03;9.03;;;9.80;99.90;;;;;;5092048;28;20228;-63
2022/12/21 08:15:58;;;;;;;15.63;10.37;;;9.70;99.90;;;;;;5091210;28;20643;-63
2022/12/21 08:18:24;;;;;;;20.83;9.07;;;9.90;99.90;;;;;;5090763;28;20264;-62
2022/12/21 08:20:49;;;;;;;16.93;8.80;;;9.80;99.90;;;;;;5087577;28;20287;-64
2022/12/21 08:23:15;;;;;;;24.23;10.03;;;9.70;99.90;;;;;;5081131;28;20647;-62
2022/12/21 08:25:41;;;;;;;28.90;10.20;;;9.50;99.90;;;;;;5084810;28;20211;-62
2022/12/21 08:28:07;;;;;;;19.67;11.27;;;9.60;99.90;;;;;;5105126;28;20181;-62
2022/12/21 08:30:33;;;;;;;28.07;11.57;;;9.70;99.90;;;;;;5076187;28;20200;-62
2022/12/21 08:32:58;;;;;;;22.90;11.80;;;9.60;99.90;;;;;;5093683;28;20189;-62
2022/12/21 08:35:24;;;;;;;31.93;12.57;;;9.60;99.90;;;;;;5094311;28;20312;-62
2022/12/21 08:37:52;;;;;;;31.03;13.53;;;9.60;99.90;;;;;;5087018;28;20219;-62
2022/12/21 08:40:18;;;;;;;30.27;12.37;;;9.70;99.90;;;;;;5093848;28;20182;-61
2022/12/21 08:42:43;;;;;;;26.03;12.03;;;9.70;99.90;;;;;;5084165;28;20556;-61
2022/12/21 08:45:09;;;;;;;29.83;14.90;;;9.60;99.90;;;;;;5066088;28;20196;-62
2022/12/21 08:47:36;;;;;;;29.57;13.63;;;9.60;99.90;;;;;;5093414;28;20224;-61
2022/12/21 08:50:03;;;;;;;31.10;15.10;;;9.50;99.90;;;;;;5093043;28;20193;-61
2022/12/21 08:52:28;;;;;;;31.03;14.03;;;9.60;99.90;;;;;;5095390;28;20266;-62
2022/12/21 08:54:54;;;;;;;33.30;13.10;;;9.70;99.90;;;;;;5093450;28;20220;-62
2022/12/21 08:57:20;;;;;;;28.27;13.27;;;9.90;99.90;;;;;;5085129;28;20196;-62
2022/12/21 08:59:46;;;;;;;27.63;11.73;;;9.90;99.90;;;;;;5092272;28;20189;-62
2022/12/21 09:02:12;;;;;;;24.05;11.20;;;9.90;99.90;;;;;;5083024;28;20180;-61
2022/12/21 09:04:37;;;;;;;24.57;10.03;;;9.90;99.90;;;;;;5076769;28;20189;-62
2022/12/21 09:07:03;;;;;;;21.20;10.85;;;10.00;99.90;;;;;;5092710;28;20184;-62
2022/12/21 09:09:29;;;;;;;19.37;8.93;;;10.10;99.90;;;;;;5083302;28;20181;-61
2022/12/21 09:11:54;;;;;;;21.87;10.67;;;10.20;99.90;;;;;;5090363;28;20264;-62
2022/12/21 09:14:20;;;;;;;20.03;9.33;;;10.30;99.90;;;;;;5072720;28;20280;-61
2022/12/21 09:16:46;;;;;;;21.10;9.00;;;10.40;99.90;;;;;;5086458;28;20189;-61
2022/12/21 09:19:12;;;;;;;24.10;9.77;;;10.30;99.90;;;;;;5088840;28;20196;-62
2022/12/21 09:21:37;;;;;;;18.10;9.43;;;10.40;99.90;;;;;;5093324;28;20199;-61
2022/12/21 09:24:04;;;;;;;18.57;8.77;;;10.30;99.90;;;;;;5084416;28;20273;-61
2022/12/21 09:26:29;;;;;;;16.17;9.43;;;10.20;99.90;;;;;;5093540;28;20188;-62
2022/12/21 09:28:55;;;;;;;20.47;8.53;;;10.20;99.90;;;;;;5090188;28;20280;-61
2022/12/21 09:31:22;;;;;;;18.27;9.23;;;10.20;99.90;;;;;;5091201;28;20181;-62
2022/12/21 09:33:50;;;;;;;18.40;8.20;;;10.10;99.90;;;;;;5088902;28;20232;-61
2022/12/21 09:36:16;;;;;;;19.33;9.43;;;10.00;99.90;;;;;;5074559;28;20182;-62
2022/12/21 09:38:42;;;;;;;19.77;10.53;;;9.90;99.90;;;;;;5094431;28;20650;-61
2022/12/21 09:41:23;;;;;;;21.47;9.47;;;9.90;99.90;;;;;;5093830;28;20200;-61
2022/12/21 09:44:13;;;;;;;15.27;8.80;;;10.00;99.90;;;;;;5094092;28;20192;-62
2022/12/21 09:46:42;;;;;;;25.87;9.20;;;10.00;99.90;;;;;;5075835;28;20184;-61
2022/12/21 09:49:36;;;;;;;18.07;8.43;;;10.20;99.90;;;;;;5089015;28;20181;-62
2022/12/21 09:52:06;;;;;;;21.93;8.97;;;10.10;99.90;;;;;;5084546;28;20192;-61
2022/12/21 09:54:54;;;;;;;21.13;8.90;;;10.30;99.90;;;;;;5093159;28;20195;-63
2022/12/21 09:57:20;;;;;;;18.60;9.77;;;10.30;99.90;;;;;;5080582;28;20271;-62
2022/12/21 09:59:46;;;;;;;25.17;10.57;;;10.50;99.90;;;;;;5087519;28;20276;-62
2022/12/21 10:02:45;;;;;;;20.17;11.03;;;10.50;99.90;;;;;;5092280;28;20260;-62
2022/12/21 10:05:29;;;;;;;25.00;11.40;;;10.50;99.90;;;;;;5086954;28;20249;-62
2022/12/21 10:08:45;;;;;;;18.47;10.13;;;10.60;99.90;;;;;;5083821;28;20220;-61
2022/12/21 10:11:16;;;;;;;18.27;9.90;;;10.60;99.90;;;;;;5024325;28;20532;-61
2022/12/21 10:14:29;;;;;;;19.27;9.45;;;10.70;99.90;;;;;;5011120;28;20196;-61
2022/12/21 10:17:19;;;;;;;22.73;9.80;;;10.70;99.90;;;;;;5072467;28;20275;-61
2022/12/21 10:19:54;;;;;;;20.30;8.40;;;10.70;99.90;;;;;;5092563;28;20226;-61
2022/12/21 10:22:52;;;;;;;14.57;8.60;;;10.60;99.90;;;;;;5086819;28;20232;-62
2022/12/21 10:25:21;;;;;;;16.08;9.20;;;10.70;99.90;;;;;;5076311;28;20224;-62
2022/12/21 10:28:25;;;;;;;17.55;9.43;;;10.60;99.90;;;;;;5091706;28;20185;-62
2022/12/21 10:31:07;;;;;;;12.98;7.90;;;10.50;99.90;;;;;;5082982;28;20281;-62
2022/12/21 10:33:39;;;;;;;15.68;8.35;;;10.50;99.90;;;;;;5082932;28;20271;-62
2022/12/21 10:36:05;;;;;;;12.17;7.27;;;10.60;99.90;;;;;;5093040;28;20195;-64
2022/12/21 10:38:35;;;;;;;15.43;7.23;;;10.30;99.90;;;;;;5087337;28;20209;-63
2022/12/21 10:41:07;;;;;;;11.43;6.57;;;10.20;99.90;;;;;;5085957;28;20189;-61
2022/12/21 10:43:38;;;;;;;11.60;7.07;;;10.30;99.90;;;;;;5092019;28;20208;-63
2022/12/21 10:46:05;;;;;;;10.07;6.83;;;10.40;99.90;;;;;;5090967;28;20187;-61
2022/12/21 10:48:31;;;;;;;14.90;7.30;;;10.20;99.90;;;;;;5105743;28;20184;-61
2022/12/21 10:51:11;;;;;;;13.13;7.40;;;10.20;99.90;;;;;;5092908;28;20189;-62
2022/12/21 10:53:37;;;;;;;13.20;8.00;;;10.20;99.90;;;;;;5089142;28;20181;-61
2022/12/21 10:56:03;;;;;;;14.15;6.80;;;10.30;99.90;;;;;;5087063;28;20204;-62
2022/12/21 10:58:31;;;;;;;15.40;8.17;;;10.30;99.90;;;;;;5086674;28;20212;-62
2022/12/21 11:01:20;;;;;;;18.20;8.50;;;10.30;99.90;;;;;;5093006;28;20545;-62
2022/12/21 11:04:07;;;;;;;16.90;8.40;;;10.30;99.90;;;;;;5089273;28;20213;-62
2022/12/21 11:06:33;;;;;;;16.10;7.17;;;10.20;99.90;;;;;;5087270;28;20200;-61
2022/12/21 11:08:59;;;;;;;12.33;6.10;;;10.20;99.90;;;;;;5092204;28;20192;-62
2022/12/21 11:11:33;;;;;;;12.10;6.70;;;10.20;99.90;;;;;;5082021;28;20546;-62
2022/12/21 11:14:12;;;;;;;16.17;6.90;;;10.30;99.90;;;;;;5089366;28;20276;-62
2022/12/21 11:16:38;;;;;;;15.47;7.73;;;10.30;99.90;;;;;;5084534;28;20173;-62
2022/12/21 11:19:10;;;;;;;13.70;7.47;;;10.40;99.90;;;;;;5077622;28;20188;-62
2022/12/21 11:21:53;;;;;;;14.17;7.63;;;10.40;99.90;;;;;;5091075;28;20184;-62
2022/12/21 11:24:30;;;;;;;11.93;6.85;;;10.60;99.90;;;;;;5091151;28;20247;-62
2022/12/21 11:27:19;;;;;;;13.35;7.05;;;10.60;99.90;;;;;;5083566;28;20180;-62
2022/12/21 11:29:47;;;;;;;12.60;7.85;;;10.50;99.90;;;;;;5076642;28;20181;-62
2022/12/21 11:32:15;;;;;;;11.10;7.15;;;10.60;99.90;;;;;;5092644;28;20181;-62
2022/12/21 11:34:55;;;;;;;7.88;6.18;;;10.70;99.90;;;;;;5091246;28;20643;-62
2022/12/21 11:37:23;;;;;;;15.20;6.90;;;10.60;99.90;;;;;;5092130;28;20188;-62
2022/12/21 11:39:49;;;;;;;16.73;9.02;;;10.80;99.90;;;;;;5091277;28;20757;-62
2022/12/21 11:42:23;;;;;;;16.90;7.93;;;10.90;99.90;;;;;;5092219;28;20531;-62
2022/12/21 11:45:10;;;;;;;14.93;8.20;;;10.80;99.90;;;;;;5089769;28;20181;-62
2022/12/21 11:48:07;;;;;;;10.93;8.00;;;10.60;99.90;;;;;;5082559;28;20177;-63
2022/12/21 11:50:51;;;;;;;13.02;8.20;;;10.60;99.90;;;;;;5080163;28;20189;-62
2022/12/21 11:53:44;;;;;;;12.63;8.03;;;10.60;99.90;;;;;;5085090;28;20602;-63
2022/12/21 11:56:36;;;;;;;12.00;7.43;;;10.50;99.90;;;;;;5084284;28;20187;-63
2022/12/21 11:59:19;;;;;;;14.27;7.43;;;10.70;99.90;;;;;;5085088;28;20238;-62
2022/12/21 12:01:56;;;;;;;10.38;6.57;;;10.70;99.90;;;;;;5095481;28;20181;-63
2022/12/21 12:04:42;;;;;;;10.97;7.03;;;10.60;99.90;;;;;;5094190;28;20196;-61
2022/12/21 12:07:45;;;;;;;14.63;7.87;;;10.40;99.90;;;;;;5095644;28;20181;-62
2022/12/21 12:10:23;;;;;;;11.03;6.93;;;10.40;99.90;;;;;;5094954;28;20191;-62
2022/12/21 12:12:57;;;;;;;11.47;7.53;;;10.40;99.90;;;;;;5080898;28;20181;-62
2022/12/21 12:15:47;;;;;;;10.20;6.83;;;10.40;99.90;;;;;;5091026;28;20188;-61
2022/12/21 12:18:43;;;;;;;10.57;6.13;;;10.50;99.90;;;;;;5076382;28;20225;-62
2022/12/21 12:21:27;;;;;;;12.33;5.80;;;10.40;99.90;;;;;;5095329;28;20173;-62
2022/12/21 12:24:02;;;;;;;13.40;6.27;;;10.40;99.90;;;;;;5085600;28;20217;-61
2022/12/21 12:26:39;;;;;;;11.37;5.93;;;10.50;99.90;;;;;;5094027;28;20184;-62
2022/12/21 12:29:16;;;;;;;11.17;5.97;;;10.60;99.90;;;;;;5095090;28;20191;-62
2022/12/21 12:31:58;;;;;;;17.13;5.93;;;10.60;99.90;;;;;;5086508;28;20180;-63
2022/12/21 12:35:02;;;;;;;8.67;6.43;;;10.60;99.90;;;;;;5094636;28;20654;-64
2022/12/21 12:37:57;;;;;;;9.15;5.80;;;10.60;99.90;;;;;;5092480;28;20320;-62
2022/12/21 12:40:22;;;;;;;13.30;6.90;;;10.60;99.90;;;;;;5076310;28;20322;-62
2022/12/21 12:42:54;;;;;;;12.73;5.47;;;10.70;99.90;;;;;;5094142;28;20299;-62
2022/12/21 12:45:41;;;;;;;8.88;6.05;;;10.70;99.90;;;;;;5094718;28;20631;-62
2022/12/21 12:48:31;;;;;;;10.88;6.53;;;10.60;99.90;;;;;;5085701;28;20674;-63
2022/12/21 12:51:16;;;;;;;10.95;6.32;;;10.70;99.90;;;;;;5084933;28;20188;-62
2022/12/21 12:53:41;;;;;;;10.53;6.30;;;10.70;99.90;;;;;;5092370;28;20189;-62
2022/12/21 12:56:13;;;;;;;10.77;5.82;;;10.80;99.90;;;;;;5095124;28;20655;-62
2022/12/21 12:59:08;;;;;;;10.30;6.15;;;10.80;99.90;;;;;;5092840;28;20185;-63
2022/12/21 13:01:50;;;;;;;12.48;7.32;;;10.60;99.90;;;;;;5087265;28;20192;-63
2022/12/21 13:04:15;;;;;;;12.77;6.68;;;10.60;99.90;;;;;;5083523;28;20204;-62
2022/12/21 13:07:19;;;;;;;14.48;6.10;;;10.60;99.90;;;;;;5095176;28;20177;-63
2022/12/21 13:10:07;;;;;;;8.67;6.03;;;10.70;99.90;;;;;;5087140;28;20188;-62
2022/12/21 13:12:57;;;;;;;7.50;5.25;;;10.80;99.90;;;;;;5088775;28;20181;-63